Time;durP1;ratioP1;P1;durP2;ratioP2;P2;SDS_P1;SDS_P2;PMS_P1;PMS_P2;Temp;Humidity;BMP_temperature;BMP_pressure;BME280_temperature;BME280_humidity;BME280_pressure;Samples;Min_cycle;Max_cycle;Signal;HPM_P1;HPM_P2
2023/12/18 00:01:44;;;;;;;28.33;10.00;;;;;;;6.58;100.00;102137.91;4993256;28;20427;-81
2023/12/18 00:04:12;;;;;;;25.75;10.00;;;;;;;6.62;100.00;102146.44;4982218;28;20438;-79
2023/12/18 00:06:40;;;;;;;30.00;10.20;;;;;;;6.71;100.00;102141.59;4994692;28;20955;-80
2023/12/18 00:09:08;;;;;;;22.88;10.43;;;;;;;6.64;100.00;102138.91;5004625;28;20441;-79
2023/12/18 00:11:42;;;;;;;25.42;10.45;;;;;;;6.61;100.00;102147.47;4991114;28;20449;-79
2023/12/18 00:14:10;;;;;;;26.92;10.45;;;;;;;6.53;100.00;102131.50;5007574;28;20430;-79
2023/12/18 00:16:44;;;;;;;29.38;9.95;;;;;;;6.53;100.00;102124.25;5007265;28;20422;-79
2023/12/18 00:19:17;;;;;;;26.15;9.90;;;;;;;6.61;100.00;102128.53;5004254;28;20419;-81
2023/12/18 00:21:51;;;;;;;26.02;10.60;;;;;;;6.59;100.00;102119.84;5003196;28;20780;-79
2023/12/18 00:24:24;;;;;;;26.73;11.53;;;;;;;6.53;100.00;102123.38;5008134;28;20433;-79
2023/12/18 00:26:57;;;;;;;30.58;11.07;;;;;;;6.49;100.00;102120.31;4993022;28;20437;-79
2023/12/18 00:29:30;;;;;;;26.13;11.57;;;;;;;6.47;100.00;102109.69;4991976;28;20414;-79
2023/12/18 00:32:00;;;;;;;28.00;10.68;;;;;;;6.46;100.00;102115.31;5006391;28;20409;-79
2023/12/18 00:34:33;;;;;;;27.63;11.17;;;;;;;6.49;100.00;102105.94;4994863;28;20897;-79
2023/12/18 00:37:01;;;;;;;30.60;11.30;;;;;;;6.52;100.00;102106.34;5001054;28;20425;-79
2023/12/18 00:39:34;;;;;;;25.80;11.10;;;;;;;6.40;100.00;102106.19;5006639;28;20417;-80
2023/12/18 00:42:07;;;;;;;27.55;11.60;;;;;;;6.48;100.00;102110.53;4994230;28;20451;-79
2023/12/18 00:44:36;;;;;;;30.83;11.75;;;;;;;6.53;100.00;102113.41;4995003;28;20428;-79
2023/12/18 00:47:05;;;;;;;29.00;11.82;;;;;;;6.46;100.00;102115.31;5003044;28;20416;-79
2023/12/18 00:49:38;;;;;;;24.73;11.07;;;;;;;6.44;100.00;102093.91;5003132;28;20424;-79
2023/12/18 00:52:12;;;;;;;29.42;11.55;;;;;;;6.44;100.00;102093.91;5006800;28;20433;-80
2023/12/18 00:54:45;;;;;;;25.27;11.65;;;;;;;6.40;100.00;102091.84;5005062;28;20901;-79
2023/12/18 00:57:18;;;;;;;28.90;12.03;;;;;;;6.38;100.00;102073.16;5005105;28;20443;-78
2023/12/18 00:59:51;;;;;;;29.10;11.48;;;;;;;6.39;100.00;102074.78;4989853;28;20420;-79
2023/12/18 01:02:21;;;;;;;29.77;12.10;;;;;;;6.42;100.00;102068.97;5004133;28;20884;-79
2023/12/18 01:04:49;;;;;;;27.40;12.02;;;;;;;6.44;100.00;102074.16;5003496;28;20897;-81
2023/12/18 01:07:17;;;;;;;24.13;11.25;;;;;;;6.45;100.00;102068.53;4989371;28;20433;-79
2023/12/18 01:09:50;;;;;;;27.27;11.57;;;;;;;6.51;100.00;102064.09;5006209;28;20768;-79
2023/12/18 01:12:23;;;;;;;27.92;11.38;;;;;;;6.54;100.00;102065.56;4987705;28;20441;-78
2023/12/18 01:14:51;;;;;;;26.48;10.85;;;;;;;6.47;100.00;102050.19;4992771;28;20440;-81
2023/12/18 01:17:26;;;;;;;23.48;10.63;;;;;;;6.38;100.00;102058.78;5006262;28;20452;-81
2023/12/18 01:20:00;;;;;;;26.33;11.30;;;;;;;6.41;100.00;102055.66;5002456;28;20454;-78
2023/12/18 01:22:33;;;;;;;31.13;11.40;;;;;;;6.43;100.00;102062.47;5002135;28;20461;-79
2023/12/18 01:25:07;;;;;;;32.83;11.80;;;;;;;6.44;100.00;102072.25;4990845;28;20436;-79
2023/12/18 01:27:41;;;;;;;30.38;11.27;;;;;;;6.42;100.00;102063.56;4989077;28;20444;-79
2023/12/18 01:30:10;;;;;;;31.00;11.80;;;;;;;6.41;100.00;102064.59;4999353;28;20433;-79
2023/12/18 01:32:40;;;;;;;28.17;11.10;;;;;;;6.57;100.00;102065.97;4992675;28;20434;-81
2023/12/18 01:35:13;;;;;;;27.05;10.70;;;;;;;6.50;100.00;102058.91;4990097;28;20429;-81
2023/12/18 01:37:46;;;;;;;27.75;11.10;;;;;;;6.50;100.00;102065.16;5007143;28;20432;-79
2023/12/18 01:40:15;;;;;;;30.17;11.77;;;;;;;6.43;100.00;102059.78;4984868;28;20915;-79
2023/12/18 01:42:48;;;;;;;29.13;11.73;;;;;;;6.41;100.00;102059.19;5004198;28;20445;-80
2023/12/18 01:45:16;;;;;;;29.80;11.70;;;;;;;6.38;100.00;102054.22;4990163;28;20432;-78
2023/12/18 01:47:46;;;;;;;28.50;11.15;;;;;;;6.47;100.00;102047.47;4989888;28;20436;-79
2023/12/18 01:50:14;;;;;;;29.30;12.10;;;;;;;6.38;100.00;102046.09;4991216;28;20460;-81
2023/12/18 01:52:48;;;;;;;27.00;11.77;;;;;;;6.31;100.00;102048.00;4991121;28;20511;-79
2023/12/18 01:55:17;;;;;;;26.95;11.93;;;;;;;6.36;100.00;102050.88;5005274;28;20456;-79
2023/12/18 01:57:50;;;;;;;32.90;11.93;;;;;;;6.37;100.00;102049.84;5009667;28;20494;-80
2023/12/18 02:00:23;;;;;;;28.48;12.00;;;;;;;6.35;100.00;102051.09;5000619;28;20925;-79
2023/12/18 02:02:59;;;;;;;31.75;12.07;;;;;;;6.32;100.00;102060.47;4998861;28;20427;-80
2023/12/18 02:05:32;;;;;;;26.38;11.90;;;;;;;6.40;100.00;102064.81;5008767;28;21787;-79
2023/12/18 02:08:07;;;;;;;29.10;12.23;;;;;;;6.36;100.00;102064.41;4986123;28;21151;-79
2023/12/18 02:10:40;;;;;;;29.50;12.23;;;;;;;6.33;100.00;102066.72;5002831;28;20432;-82
2023/12/18 02:13:14;;;;;;;29.20;12.30;;;;;;;6.26;100.00;102051.38;4990889;28;20433;-79
2023/12/18 02:15:47;;;;;;;27.23;12.00;;;;;;;6.29;100.00;102059.03;5002658;28;22465;-81
2023/12/18 02:18:22;;;;;;;27.15;12.02;;;;;;;6.33;100.00;102064.03;4991372;28;20917;-78
2023/12/18 02:20:55;;;;;;;32.75;12.40;;;;;;;6.34;100.00;102068.38;4992044;28;20435;-79
2023/12/18 02:23:25;;;;;;;26.67;11.50;;;;;;;6.37;100.00;102055.25;4990401;28;20918;-78
2023/12/18 02:25:58;;;;;;;27.70;12.07;;;;;;;6.40;100.00;102067.50;5006517;28;20494;-79
2023/12/18 02:28:27;;;;;;;29.00;12.02;;;;;;;6.43;100.00;102069.78;4992177;28;20432;-79
2023/12/18 02:31:00;;;;;;;30.92;12.38;;;;;;;6.39;100.00;102061.25;4983824;28;20425;-79
2023/12/18 02:33:33;;;;;;;31.40;11.47;;;;;;;6.35;100.00;102060.03;5002937;28;20451;-79
2023/12/18 02:36:07;;;;;;;27.90;11.63;;;;;;;6.38;100.00;102056.06;4985020;28;20421;-80
2023/12/18 02:38:36;;;;;;;33.43;12.67;;;;;;;6.35;100.00;102035.69;4987299;28;20456;-79
2023/12/18 02:41:09;;;;;;;28.77;11.75;;;;;;;6.37;100.00;102036.31;4987316;28;20789;-79
2023/12/18 02:43:38;;;;;;;31.45;11.80;;;;;;;6.44;100.00;102028.19;5000773;28;20482;-79
2023/12/18 02:46:11;;;;;;;31.85;12.18;;;;;;;6.33;100.00;102027.00;4991540;28;20433;-79
2023/12/18 02:48:44;;;;;;;34.47;12.07;;;;;;;6.40;100.00;102035.06;4998926;28;20945;-80
2023/12/18 02:51:12;;;;;;;27.58;11.73;;;;;;;6.25;100.00;102028.06;5007623;28;20441;-80
2023/12/18 02:53:42;;;;;;;34.22;13.57;;;;;;;6.21;100.00;102024.16;4984977;28;20436;-79
2023/12/18 02:56:15;;;;;;;31.10;13.27;;;;;;;6.22;100.00;102020.41;4996140;28;20429;-80
2023/12/18 02:58:48;;;;;;;29.07;13.03;;;;;;;6.26;100.00;102010.81;5000996;28;20429;-80
2023/12/18 03:01:16;;;;;;;30.38;12.25;;;;;;;6.17;100.00;102017.50;4984697;28;20437;-80
2023/12/18 03:03:50;;;;;;;32.37;12.77;;;;;;;6.21;100.00;102016.03;5000847;28;20945;-79
2023/12/18 03:06:23;;;;;;;30.27;12.68;;;;;;;6.30;100.00;102030.97;5003578;28;20422;-80
2023/12/18 03:08:57;;;;;;;29.55;12.85;;;;;;;6.19;100.00;102010.03;4980443;28;20441;-79
2023/12/18 03:11:26;;;;;;;31.67;13.20;;;;;;;6.20;100.00;102017.09;5004515;28;20436;-81
2023/12/18 03:13:59;;;;;;;31.87;13.60;;;;;;;6.23;100.00;102027.47;4989770;28;20549;-79
2023/12/18 03:16:32;;;;;;;28.35;13.05;;;;;;;6.15;100.00;102018.81;5008194;28;20908;-79
2023/12/18 03:19:00;;;;;;;33.47;13.20;;;;;;;6.12;100.00;102017.34;5006466;28;20432;-79
2023/12/18 03:21:28;;;;;;;36.47;13.68;;;;;;;6.10;100.00;102022.13;4995068;28;20444;-80
2023/12/18 03:23:58;;;;;;;41.10;14.38;;;;;;;6.08;100.00;102027.75;5007161;28;20456;-79
2023/12/18 03:26:31;;;;;;;29.42;13.32;;;;;;;6.20;100.00;102027.06;5013024;28;20440;-80
2023/12/18 03:28:59;;;;;;;30.25;12.98;;;;;;;6.17;100.00;102027.50;4996171;28;20441;-80
2023/12/18 03:31:32;;;;;;;33.15;13.90;;;;;;;6.15;100.00;102027.72;4991856;28;20432;-79
2023/12/18 03:34:06;;;;;;;31.48;14.20;;;;;;;6.14;100.00;102020.66;4990000;28;20433;-82
2023/12/18 03:36:39;;;;;;;31.25;13.38;;;;;;;6.11;100.00;102024.63;4993008;28;20428;-81
2023/12/18 03:39:08;;;;;;;34.55;13.43;;;;;;;6.24;100.00;102026.44;5006816;28;20421;-79
2023/12/18 03:41:37;;;;;;;29.33;12.97;;;;;;;6.27;100.00;102036.81;5006198;28;20421;-82
2023/12/18 03:44:05;;;;;;;33.92;12.90;;;;;;;6.29;100.00;102020.38;5006733;28;20420;-79
2023/12/18 03:46:38;;;;;;;30.57;12.67;;;;;;;6.23;100.00;102032.88;5010045;28;20444;-79
2023/12/18 03:49:11;;;;;;;32.88;12.18;;;;;;;6.24;100.00;102039.94;4995249;28;20439;-80
2023/12/18 03:51:39;;;;;;;31.05;13.05;;;;;;;6.24;100.00;102037.25;5008146;28;20428;-79
2023/12/18 03:54:14;;;;;;;32.53;13.27;;;;;;;6.19;100.00;102031.66;5010242;28;20428;-79
2023/12/18 03:56:42;;;;;;;31.67;13.40;;;;;;;6.13;100.00;102021.69;4989576;28;20444;-79
2023/12/18 03:59:15;;;;;;;30.25;13.45;;;;;;;6.20;100.00;102016.25;5005608;28;20455;-80
2023/12/18 04:01:48;;;;;;;28.67;13.63;;;;;;;6.24;100.00;102020.19;4981108;28;20445;-79
2023/12/18 04:04:21;;;;;;;29.20;13.10;;;;;;;6.20;100.00;102008.16;4994196;28;20434;-79
2023/12/18 04:06:50;;;;;;;30.20;13.45;;;;;;;6.17;100.00;102003.19;5006586;28;20431;-79
2023/12/18 04:09:24;;;;;;;28.98;13.05;;;;;;;6.32;100.00;102000.19;4992108;28;20974;-80
2023/12/18 04:11:52;;;;;;;32.17;13.75;;;;;;;6.12;100.00;102001.16;5004401;28;20949;-80
2023/12/18 04:14:25;;;;;;;30.70;13.85;;;;;;;6.06;100.00;102008.25;4990157;28;20432;-78
2023/12/18 04:16:59;;;;;;;32.10;14.57;;;;;;;6.24;100.00;102012.06;5007543;28;21434;-78
2023/12/18 04:19:27;;;;;;;30.75;13.25;;;;;;;6.28;100.00;102021.41;4993898;28;20449;-79
2023/12/18 04:21:55;;;;;;;30.42;13.52;;;;;;;6.13;100.00;102017.13;5003028;28;20410;-79
2023/12/18 04:24:29;;;;;;;32.42;13.77;;;;;;;6.18;100.00;102016.47;4984875;28;20422;-79
2023/12/18 04:27:03;;;;;;;32.27;13.50;;;;;;;6.15;100.00;102022.31;4989577;28;20424;-79
2023/12/18 04:29:37;;;;;;;35.03;14.43;;;;;;;6.08;100.00;102010.72;5009374;28;20443;-79
2023/12/18 04:32:06;;;;;;;31.42;14.23;;;;;;;6.17;100.00;102017.50;5008163;28;20432;-79
2023/12/18 04:34:34;;;;;;;31.13;13.77;;;;;;;6.22;100.00;102022.28;4991569;28;20766;-80
2023/12/18 04:37:07;;;;;;;30.65;13.82;;;;;;;6.23;100.00;102013.97;4992699;28;20421;-79
2023/12/18 04:39:42;;;;;;;34.47;14.07;;;;;;;6.07;100.00;102023.41;4991514;28;20438;-78
2023/12/18 04:42:10;;;;;;;29.17;14.33;;;;;;;6.06;100.00;102013.66;5006066;28;20440;-78
2023/12/18 04:44:39;;;;;;;36.03;14.85;;;;;;;6.16;100.00;102026.69;4987028;28;20507;-78
2023/12/18 04:47:07;;;;;;;30.75;14.00;;;;;;;6.18;100.00;102019.19;5006879;28;20420;-79
2023/12/18 04:49:40;;;;;;;32.50;14.13;;;;;;;6.15;100.00;102021.50;4980208;28;20429;-81
2023/12/18 04:52:13;;;;;;;34.97;14.30;;;;;;;6.21;100.00;102012.50;4991128;28;21209;-81
2023/12/18 04:54:48;;;;;;;27.47;13.50;;;;;;;6.20;100.00;102024.38;4991619;28;20526;-81
2023/12/18 04:57:21;;;;;;;29.67;14.27;;;;;;;6.13;100.00;102025.25;4982464;28;20429;-80
2023/12/18 04:59:49;;;;;;;29.20;14.03;;;;;;;6.12;100.00;102015.47;4983553;28;20439;-79
2023/12/18 05:02:22;;;;;;;32.92;14.77;;;;;;;6.03;100.00;102014.06;4984976;28;20437;-80
2023/12/18 05:04:55;;;;;;;30.95;14.57;;;;;;;6.14;100.00;101996.34;5005820;28;20429;-79
2023/12/18 05:07:26;;;;;;;32.50;14.50;;;;;;;6.15;100.00;102011.50;5006772;28;20427;-80
2023/12/18 05:09:55;;;;;;;27.88;14.55;;;;;;;6.11;100.00;102003.00;5006334;28;20432;-79
2023/12/18 05:12:23;;;;;;;34.33;14.93;;;;;;;6.12;100.00;102003.84;5007287;28;20428;-79
2023/12/18 05:14:52;;;;;;;28.80;15.00;;;;;;;6.18;100.00;102007.56;5003193;28;21228;-79
2023/12/18 05:17:25;;;;;;;31.08;14.55;;;;;;;6.20;100.00;102013.56;5006237;28;20424;-79
2023/12/18 05:19:53;;;;;;;31.92;15.05;;;;;;;6.18;100.00;102019.19;5004347;28;20421;-79
2023/12/18 05:22:26;;;;;;;31.80;14.90;;;;;;;6.18;100.00;102012.97;5004849;28;21104;-80
2023/12/18 05:25:01;;;;;;;32.97;15.05;;;;;;;6.16;100.00;102012.31;5003664;28;20441;-81
2023/12/18 05:27:34;;;;;;;30.30;15.07;;;;;;;6.11;100.00;102010.28;5005424;28;20904;-80
2023/12/18 05:30:03;;;;;;;31.48;14.90;;;;;;;6.23;100.00;102013.16;5004293;28;20428;-80
2023/12/18 05:32:31;;;;;;;34.35;15.25;;;;;;;6.17;100.00;102019.41;5004267;28;20440;-79
2023/12/18 05:35:00;;;;;;;33.10;14.80;;;;;;;6.08;100.00;102027.75;5004358;28;20438;-79
2023/12/18 05:37:33;;;;;;;32.97;15.17;;;;;;;6.06;100.00;102032.56;5007682;28;20493;-80
2023/12/18 05:40:09;;;;;;;30.55;14.90;;;;;;;6.08;100.00;102025.06;5004656;28;20428;-80
2023/12/18 05:42:37;;;;;;;33.47;15.07;;;;;;;6.15;100.00;102025.03;4993297;28;20450;-80
2023/12/18 05:45:07;;;;;;;30.73;14.43;;;;;;;6.10;100.00;102025.69;5004387;28;20448;-79
2023/12/18 05:47:40;;;;;;;29.95;15.30;;;;;;;6.08;100.00;102014.25;4988745;28;20428;-80
2023/12/18 05:50:14;;;;;;;31.90;14.83;;;;;;;6.09;100.00;102017.78;4997805;28;20437;-79
2023/12/18 05:52:42;;;;;;;34.67;14.65;;;;;;;6.07;100.00;102014.47;4989675;28;20460;-80
2023/12/18 05:55:12;;;;;;;30.85;14.77;;;;;;;6.04;100.00;102009.50;4991399;28;20447;-80
2023/12/18 05:57:45;;;;;;;35.55;14.93;;;;;;;6.19;100.00;102020.03;5002994;28;20433;-80
2023/12/18 06:00:19;;;;;;;31.85;14.90;;;;;;;6.09;100.00;102026.72;4989971;28;20433;-79
2023/12/18 06:02:52;;;;;;;33.85;14.75;;;;;;;6.02;100.00;102025.94;4987536;28;20455;-79
2023/12/18 06:05:25;;;;;;;35.40;15.65;;;;;;;6.08;100.00;102024.25;5002879;28;20459;-79
2023/12/18 06:07:53;;;;;;;33.42;14.73;;;;;;;6.07;100.00;102019.88;4988026;28;20441;-80
2023/12/18 06:10:28;;;;;;;31.55;14.82;;;;;;;6.02;100.00;102017.84;5009998;28;20502;-80
2023/12/18 06:13:01;;;;;;;34.00;15.27;;;;;;;6.07;100.00;102015.28;5004062;28;20412;-78
2023/12/18 06:15:34;;;;;;;32.97;14.68;;;;;;;6.04;100.00;102017.63;4977317;28;20439;-79
2023/12/18 06:18:07;;;;;;;33.77;15.10;;;;;;;6.06;100.00;102019.06;5008562;28;20420;-81
2023/12/18 06:20:36;;;;;;;33.92;15.63;;;;;;;6.01;100.00;102026.13;4994918;28;20421;-79
2023/12/18 06:23:09;;;;;;;30.65;14.88;;;;;;;5.96;100.00;102032.16;4990205;28;20417;-79
2023/12/18 06:25:44;;;;;;;33.47;14.73;;;;;;;5.98;100.00;102032.81;4988768;28;20853;-78
2023/12/18 06:28:12;;;;;;;34.72;15.52;;;;;;;6.00;100.00;102038.81;4987117;28;20458;-82
2023/12/18 06:30:40;;;;;;;34.40;15.38;;;;;;;6.00;100.00;102036.13;4996041;28;20449;-80
2023/12/18 06:33:14;;;;;;;35.90;15.68;;;;;;;5.97;100.00;102036.53;5001953;28;20432;-79
2023/12/18 06:35:43;;;;;;;36.92;16.25;;;;;;;5.93;100.00;102040.72;5003845;28;20428;-80
2023/12/18 06:38:16;;;;;;;36.90;15.77;;;;;;;6.00;100.00;102046.94;5002001;28;20449;-84
2023/12/18 06:40:45;;;;;;;33.58;14.77;;;;;;;6.03;100.00;102053.78;4979237;28;20428;-79
2023/12/18 06:43:19;;;;;;;32.80;15.15;;;;;;;6.07;100.00;102045.00;4985533;28;20445;-79
2023/12/18 06:45:52;;;;;;;32.10;15.10;;;;;;;6.02;100.00;102052.97;4993447;28;20421;-79
2023/12/18 06:48:25;;;;;;;35.10;16.08;;;;;;;6.01;100.00;102036.94;4989135;28;20429;-80
2023/12/18 06:50:58;;;;;;;35.45;15.95;;;;;;;6.02;100.00;102038.59;5005898;28;21269;-79
2023/12/18 06:53:31;;;;;;;33.53;15.32;;;;;;;5.96;100.00;102046.50;4984677;28;20948;-79
2023/12/18 06:56:07;;;;;;;34.20;16.08;;;;;;;5.99;100.00;102044.44;5009612;28;20451;-82
2023/12/18 06:58:35;;;;;;;32.85;16.13;;;;;;;6.00;100.00;102052.34;5007843;28;20430;-79
2023/12/18 07:01:04;;;;;;;33.95;16.65;;;;;;;5.99;100.00;102042.56;4993358;28;20798;-80
2023/12/18 07:03:37;;;;;;;33.45;16.27;;;;;;;6.12;100.00;102042.50;4994691;28;20425;-79
2023/12/18 07:06:07;;;;;;;37.97;16.33;;;;;;;6.07;100.00;102036.09;4992640;28;20451;-79
2023/12/18 07:08:40;;;;;;;37.95;16.60;;;;;;;6.03;100.00;102042.97;5011498;28;20435;-81
2023/12/18 07:11:09;;;;;;;40.85;16.17;;;;;;;5.99;100.00;102037.16;4992989;28;20440;-82
2023/12/18 07:13:43;;;;;;;35.25;17.10;;;;;;;6.05;100.00;102038.16;4986006;28;20432;-80
2023/12/18 07:16:19;;;;;;;34.37;16.20;;;;;;;6.01;100.00;102036.94;4992312;28;20467;-80
2023/12/18 07:18:47;;;;;;;38.08;16.45;;;;;;;5.98;100.00;102043.63;4982226;28;20447;-82
2023/12/18 07:21:20;;;;;;;37.03;17.08;;;;;;;5.90;100.00;102041.13;4998736;28;20424;-81
2023/12/18 07:23:54;;;;;;;43.72;17.25;;;;;;;6.05;100.00;102055.22;4992939;28;20444;-80
2023/12/18 07:26:28;;;;;;;40.03;16.25;;;;;;;6.10;100.00;102058.13;5012807;28;20440;-82
2023/12/18 07:29:01;;;;;;;39.85;17.48;;;;;;;6.00;100.00;102062.31;5009467;28;20431;-80
2023/12/18 07:31:29;;;;;;;39.97;16.73;;;;;;;6.07;100.00;102053.13;5012751;28;20428;-82
2023/12/18 07:33:58;;;;;;;41.33;17.23;;;;;;;6.06;100.00;102056.91;4981393;28;20433;-82
2023/12/18 07:36:35;;;;;;;43.55;17.70;;;;;;;6.11;100.00;102056.25;4997421;28;21455;-85
2023/12/18 07:39:03;;;;;;;41.22;17.25;;;;;;;5.98;100.00;102064.41;4984217;28;20434;-81
2023/12/18 07:41:33;;;;;;;47.70;17.83;;;;;;;6.02;100.00;102065.63;5007661;28;20428;-80
2023/12/18 07:44:06;;;;;;;45.90;18.35;;;;;;;6.14;100.00;102072.00;5013072;28;20426;-82
2023/12/18 07:46:34;;;;;;;42.50;17.83;;;;;;;6.06;100.00;102069.56;4994164;28;20432;-80
2023/12/18 07:49:03;;;;;;;44.67;18.08;;;;;;;6.09;100.00;102069.13;4948510;28;20433;-82
2023/12/18 07:51:31;;;;;;;42.43;18.80;;;;;;;6.00;100.00;102062.31;4982766;28;20488;-83
2023/12/18 07:53:59;;;;;;;45.75;17.27;;;;;;;6.04;100.00;102074.38;4993716;28;20668;-80
2023/12/18 07:56:27;;;;;;;48.63;17.92;;;;;;;6.04;100.00;102094.09;4980956;28;20444;-82
2023/12/18 07:59:02;;;;;;;41.47;17.92;;;;;;;6.07;100.00;102074.75;4973381;28;20436;-81
2023/12/18 08:01:36;;;;;;;46.30;18.23;;;;;;;6.09;100.00;102091.59;4970941;28;21436;-83
2023/12/18 08:04:10;;;;;;;41.58;18.30;;;;;;;6.03;100.00;102084.31;4978994;28;20448;-82
2023/12/18 08:06:38;;;;;;;42.10;17.48;;;;;;;6.06;100.00;102083.94;4981658;28;20429;-82
2023/12/18 08:09:07;;;;;;;45.72;18.08;;;;;;;6.09;100.00;102079.94;5000502;28;20450;-84
2023/12/18 08:11:40;;;;;;;42.27;17.70;;;;;;;6.12;100.00;102074.94;4976496;28;20522;-82
2023/12/18 08:14:10;;;;;;;43.53;18.15;;;;;;;6.15;100.00;102075.56;4995301;28;20425;-81
2023/12/18 08:16:43;;;;;;;43.55;17.42;;;;;;;6.11;100.00;102070.56;4998734;28;20439;-81
2023/12/18 08:19:16;;;;;;;39.72;17.88;;;;;;;6.15;100.00;102073.69;5002830;28;20441;-83
2023/12/18 08:21:44;;;;;;;46.47;18.90;;;;;;;6.04;100.00;102068.97;4979739;28;20439;-83
2023/12/18 08:24:13;;;;;;;46.08;18.20;;;;;;;6.06;100.00;102062.31;5004551;28;20410;-83
2023/12/18 08:26:41;;;;;;;46.13;18.65;;;;;;;6.05;100.00;102066.03;4982341;28;20436;-82
2023/12/18 08:29:10;;;;;;;51.78;19.35;;;;;;;6.12;100.00;102063.31;4985428;28;20423;-83
2023/12/18 08:31:44;;;;;;;43.35;17.90;;;;;;;6.01;100.00;102054.00;4984032;28;20417;-80
2023/12/18 08:34:17;;;;;;;48.47;17.75;;;;;;;6.12;100.00;102047.09;5001342;28;20444;-84
2023/12/18 08:36:50;;;;;;;42.60;17.67;;;;;;;6.10;100.00;102054.56;4983927;28;20461;-79
2023/12/18 08:39:23;;;;;;;45.25;18.38;;;;;;;6.13;100.00;102054.97;4984800;28;20440;-84
2023/12/18 08:41:57;;;;;;;44.17;17.60;;;;;;;6.23;100.00;102048.28;5005875;28;20419;-79
2023/12/18 08:44:26;;;;;;;42.53;17.70;;;;;;;6.19;100.00;102036.25;4979967;28;20413;-80
2023/12/18 08:46:59;;;;;;;45.92;18.00;;;;;;;6.13;100.00;102035.22;4983487;28;20438;-83
2023/12/18 08:49:32;;;;;;;42.05;18.05;;;;;;;6.11;100.00;102031.91;4950305;28;20812;-82
2023/12/18 08:52:01;;;;;;;39.97;17.60;;;;;;;6.24;100.00;102034.53;4977861;28;20541;-83
2023/12/18 08:54:29;;;;;;;45.08;18.30;;;;;;;6.15;100.00;102026.91;4976859;28;20446;-82
2023/12/18 08:56:57;;;;;;;44.78;17.85;;;;;;;6.16;100.00;102028.53;4978965;28;21112;-83
2023/12/18 08:59:27;;;;;;;44.75;18.77;;;;;;;6.09;100.00;102020.47;4979359;28;20431;-81
2023/12/18 09:01:55;;;;;;;47.03;18.95;;;;;;;6.12;100.00;102022.75;4972861;28;20442;-82
2023/12/18 09:04:28;;;;;;;47.83;17.80;;;;;;;6.22;100.00;102025.00;4969290;28;20427;-82
2023/12/18 09:06:56;;;;;;;41.00;18.60;;;;;;;6.10;100.00;102023.00;4973533;28;20449;-85
2023/12/18 09:09:24;;;;;;;44.47;18.03;;;;;;;6.18;100.00;102023.78;5002663;28;20434;-82
2023/12/18 09:11:52;;;;;;;45.22;18.52;;;;;;;6.09;100.00;102026.72;4978104;28;20443;-82
2023/12/18 09:14:20;;;;;;;44.33;18.60;;;;;;;6.11;100.00;102021.91;4993694;28;20436;-82
2023/12/18 09:16:50;;;;;;;46.72;19.50;;;;;;;6.10;100.00;102035.66;4983308;28;20796;-83
2023/12/18 09:19:23;;;;;;;48.40;18.97;;;;;;;6.19;100.00;102045.16;4994091;28;20492;-80
2023/12/18 09:21:52;;;;;;;48.38;18.75;;;;;;;6.26;100.00;102039.72;4977490;28;20447;-81
2023/12/18 09:24:26;;;;;;;42.60;18.20;;;;;;;6.32;100.00;102036.16;4970462;28;20469;-83
2023/12/18 09:26:59;;;;;;;42.30;18.33;;;;;;;6.21;100.00;102043.06;4990264;28;20430;-82
2023/12/18 09:29:27;;;;;;;42.87;18.23;;;;;;;6.20;100.00;102046.84;4994470;28;20536;-83
2023/12/18 09:31:58;;;;;;;47.88;18.85;;;;;;;6.28;100.00;102037.63;4998209;28;20440;-83
2023/12/18 09:34:26;;;;;;;42.25;18.50;;;;;;;6.27;100.00;102044.91;4984513;28;20442;-83
2023/12/18 09:36:54;;;;;;;42.33;18.80;;;;;;;6.13;100.00;102048.72;4977633;28;21004;-80
2023/12/18 09:39:27;;;;;;;44.85;19.42;;;;;;;6.20;100.00;102035.19;4974428;28;20436;-82
2023/12/18 09:42:01;;;;;;;46.55;18.83;;;;;;;6.21;100.00;102032.25;4978948;28;20442;-80
2023/12/18 09:44:31;;;;;;;44.30;18.83;;;;;;;6.25;100.00;102041.59;4976420;28;20452;-81
2023/12/18 09:47:01;;;;;;;45.00;18.67;;;;;;;6.26;100.00;102037.84;4977190;28;20448;-82
2023/12/18 09:49:34;;;;;;;47.15;19.00;;;;;;;6.20;100.00;102027.06;4963615;28;21143;-82
2023/12/18 09:52:08;;;;;;;49.83;19.17;;;;;;;6.26;100.00;102031.63;4974989;28;20431;-83
2023/12/18 09:54:40;;;;;;;43.60;17.98;;;;;;;6.24;100.00;102031.84;4985695;28;20432;-83
2023/12/18 09:57:18;;;;;;;48.90;19.10;;;;;;;6.21;100.00;102029.56;4980902;28;21041;-83
2023/12/18 09:59:51;;;;;;;47.20;19.15;;;;;;;6.29;100.00;102026.59;4997036;28;20431;-82
2023/12/18 10:02:22;;;;;;;40.83;17.93;;;;;;;6.35;100.00;102018.66;4976757;28;20437;-84
2023/12/18 10:04:50;;;;;;;47.03;18.50;;;;;;;6.36;100.00;102018.44;4972951;28;20437;-82
2023/12/18 10:07:23;;;;;;;46.50;18.40;;;;;;;6.35;100.00;102022.19;4994569;28;20772;-82
2023/12/18 10:09:52;;;;;;;45.30;18.60;;;;;;;6.39;100.00;102028.00;4975319;28;20429;-83
2023/12/18 10:12:25;;;;;;;48.13;18.92;;;;;;;6.32;100.00;102019.09;4972706;28;20429;-82
2023/12/18 10:14:58;;;;;;;45.78;18.98;;;;;;;6.37;100.00;102006.59;4981156;28;20434;-80
2023/12/18 10:17:33;;;;;;;47.50;18.37;;;;;;;6.30;100.00;101995.00;4977395;28;20444;-80
2023/12/18 10:20:08;;;;;;;42.88;18.35;;;;;;;6.21;100.00;101996.28;4984673;28;20948;-83
2023/12/18 10:22:43;;;;;;;45.60;18.53;;;;;;;6.35;100.00;101988.91;4981358;28;20436;-81
2023/12/18 10:25:16;;;;;;;50.97;19.27;;;;;;;6.38;100.00;101991.19;4984251;28;20423;-83
2023/12/18 10:27:46;;;;;;;44.15;19.33;;;;;;;6.32;100.00;101990.19;4980398;28;20667;-81
2023/12/18 10:30:19;;;;;;;45.80;18.02;;;;;;;6.41;100.00;101993.47;4998984;28;20418;-80
2023/12/18 10:32:49;;;;;;;47.47;19.98;;;;;;;6.40;100.00;101992.63;5004000;28;20428;-83
2023/12/18 10:35:17;;;;;;;44.88;18.40;;;;;;;6.43;100.00;101983.25;4984303;28;20438;-82
2023/12/18 10:37:49;;;;;;;47.33;18.60;;;;;;;6.42;100.00;101982.44;4981385;28;20455;-82
2023/12/18 10:40:25;;;;;;;45.70;18.93;;;;;;;6.47;100.00;101984.47;5002667;28;21252;-83
2023/12/18 10:43:08;;;;;;;45.00;17.70;;;;;;;6.36;100.00;101975.19;4985345;28;20434;-82
2023/12/18 10:45:38;;;;;;;48.45;18.98;;;;;;;6.45;100.00;101983.88;4996866;28;20457;-83
2023/12/18 10:48:13;;;;;;;42.72;18.60;;;;;;;6.41;100.00;101979.94;4952005;28;20431;-82
2023/12/18 10:50:48;;;;;;;44.20;17.80;;;;;;;6.49;100.00;101979.69;4978119;28;20432;-84
2023/12/18 10:53:18;;;;;;;41.65;17.95;;;;;;;6.49;100.00;101971.56;4997217;28;20429;-83
2023/12/18 10:55:48;;;;;;;42.63;18.88;;;;;;;6.53;100.00;101966.53;4980440;28;21129;-83
2023/12/18 10:58:22;;;;;;;46.92;18.33;;;;;;;6.50;100.00;101964.25;4982833;28;20794;-84
2023/12/18 11:00:56;;;;;;;45.53;18.23;;;;;;;6.50;100.00;101964.25;4978847;28;20427;-83
2023/12/18 11:03:31;;;;;;;45.70;18.53;;;;;;;6.41;100.00;101959.13;4975840;28;20436;-80
2023/12/18 11:06:06;;;;;;;40.87;19.07;;;;;;;6.41;100.00;101947.50;4990744;28;20439;-82
2023/12/18 11:08:34;;;;;;;45.60;18.85;;;;;;;6.50;100.00;101956.16;4983281;28;20453;-86
2023/12/18 11:11:05;;;;;;;41.25;17.60;;;;;;;6.45;100.00;101957.63;4977599;28;20439;-82
2023/12/18 11:13:50;;;;;;;43.63;18.73;;;;;;;6.53;100.00;101953.84;4979274;28;20433;-81
2023/12/18 11:16:35;;;;;;;43.95;18.77;;;;;;;6.49;100.00;101958.03;4979803;28;20429;-84
2023/12/18 11:19:17;;;;;;;46.05;18.88;;;;;;;6.54;100.00;101957.38;4972298;28;20438;-84
2023/12/18 11:21:48;;;;;;;50.42;18.65;;;;;;;6.44;100.00;101942.47;4977849;28;20443;-85
2023/12/18 11:24:18;;;;;;;46.85;18.23;;;;;;;6.53;100.00;101940.31;4979874;28;20440;-83
2023/12/18 11:26:47;;;;;;;40.00;18.37;;;;;;;6.60;100.00;101942.94;4982484;28;20452;-83
2023/12/18 11:29:41;;;;;;;48.00;18.67;;;;;;;6.43;100.00;101951.59;4995462;28;20431;-86